sensor_id;sensor_type;location;lat;lon;timestamp;temperature;humidity
78779;DHT22;68121;52.404;5.318;2024-02-23T00:00:44;5.50;76.30
78779;DHT22;68121;52.404;5.318;2024-02-23T00:03:10;5.60;76.30
78779;DHT22;68121;52.404;5.318;2024-02-23T00:05:36;5.70;76.20
78779;DHT22;68121;52.404;5.318;2024-02-23T00:08:02;5.80;76.00
78779;DHT22;68121;52.404;5.318;2024-02-23T00:10:29;5.90;75.90
78779;DHT22;68121;52.404;5.318;2024-02-23T00:12:55;6.00;75.70
78779;DHT22;68121;52.404;5.318;2024-02-23T00:15:21;6.00;75.60
78779;DHT22;68121;52.404;5.318;2024-02-23T00:17:47;6.10;75.50
78779;DHT22;68121;52.404;5.318;2024-02-23T00:20:13;6.20;75.50
78779;DHT22;68121;52.404;5.318;2024-02-23T00:22:40;6.20;75.40
78779;DHT22;68121;52.404;5.318;2024-02-23T00:25:06;6.20;75.30
78779;DHT22;68121;52.404;5.318;2024-02-23T00:27:33;6.30;75.30
78779;DHT22;68121;52.404;5.318;2024-02-23T00:29:59;6.30;75.20
78779;DHT22;68121;52.404;5.318;2024-02-23T00:32:26;6.30;75.20
78779;DHT22;68121;52.404;5.318;2024-02-23T00:34:52;6.40;75.20
78779;DHT22;68121;52.404;5.318;2024-02-23T00:37:18;6.40;75.00
78779;DHT22;68121;52.404;5.318;2024-02-23T00:39:44;6.40;75.00
78779;DHT22;68121;52.404;5.318;2024-02-23T00:42:10;6.50;75.00
78779;DHT22;68121;52.404;5.318;2024-02-23T00:44:36;6.50;74.90
78779;DHT22;68121;52.404;5.318;2024-02-23T00:47:02;6.50;74.90
78779;DHT22;68121;52.404;5.318;2024-02-23T00:49:30;6.50;74.90
78779;DHT22;68121;52.404;5.318;2024-02-23T00:51:56;6.50;74.80
78779;DHT22;68121;52.404;5.318;2024-02-23T00:54:22;6.50;74.70
78779;DHT22;68121;52.404;5.318;2024-02-23T00:56:48;6.50;74.80
78779;DHT22;68121;52.404;5.318;2024-02-23T00:59:15;6.60;74.70
78779;DHT22;68121;52.404;5.318;2024-02-23T01:01:41;6.60;74.70
78779;DHT22;68121;52.404;5.318;2024-02-23T01:04:07;6.60;74.70
78779;DHT22;68121;52.404;5.318;2024-02-23T01:06:33;6.50;74.60
78779;DHT22;68121;52.404;5.318;2024-02-23T01:08:59;6.50;74.50
78779;DHT22;68121;52.404;5.318;2024-02-23T01:11:25;6.60;74.50
78779;DHT22;68121;52.404;5.318;2024-02-23T01:13:51;6.60;74.40
78779;DHT22;68121;52.404;5.318;2024-02-23T01:16:17;6.60;74.40
78779;DHT22;68121;52.404;5.318;2024-02-23T01:18:43;6.60;74.30
78779;DHT22;68121;52.404;5.318;2024-02-23T01:21:09;6.60;74.20
78779;DHT22;68121;52.404;5.318;2024-02-23T01:23:35;6.60;74.20
78779;DHT22;68121;52.404;5.318;2024-02-23T01:26:01;6.60;74.10
78779;DHT22;68121;52.404;5.318;2024-02-23T01:28:28;6.60;74.10
78779;DHT22;68121;52.404;5.318;2024-02-23T01:30:54;6.60;74.10
78779;DHT22;68121;52.404;5.318;2024-02-23T01:33:20;6.60;74.00
78779;DHT22;68121;52.404;5.318;2024-02-23T01:35:46;6.60;74.00
78779;DHT22;68121;52.404;5.318;2024-02-23T01:38:12;6.60;74.00
78779;DHT22;68121;52.404;5.318;2024-02-23T01:40:44;6.60;73.90
78779;DHT22;68121;52.404;5.318;2024-02-23T01:43:10;6.60;73.80
78779;DHT22;68121;52.404;5.318;2024-02-23T01:45:36;6.50;73.80
78779;DHT22;68121;52.404;5.318;2024-02-23T01:48:02;6.50;73.70
78779;DHT22;68121;52.404;5.318;2024-02-23T01:50:29;6.50;73.70
78779;DHT22;68121;52.404;5.318;2024-02-23T01:53:00;6.50;73.70
78779;DHT22;68121;52.404;5.318;2024-02-23T01:55:27;6.50;73.60
78779;DHT22;68121;52.404;5.318;2024-02-23T01:57:53;6.50;73.60
78779;DHT22;68121;52.404;5.318;2024-02-23T02:00:20;6.40;73.50
78779;DHT22;68121;52.404;5.318;2024-02-23T02:02:48;6.40;73.50
78779;DHT22;68121;52.404;5.318;2024-02-23T02:05:14;6.40;73.50
78779;DHT22;68121;52.404;5.318;2024-02-23T02:07:43;6.40;73.40
78779;DHT22;68121;52.404;5.318;2024-02-23T02:10:10;6.40;73.40
78779;DHT22;68121;52.404;5.318;2024-02-23T02:12:36;6.40;73.40
78779;DHT22;68121;52.404;5.318;2024-02-23T02:15:04;6.40;73.40
78779;DHT22;68121;52.404;5.318;2024-02-23T02:17:30;6.40;73.40
78779;DHT22;68121;52.404;5.318;2024-02-23T02:19:59;6.40;73.40
78779;DHT22;68121;52.404;5.318;2024-02-23T02:22:27;6.40;73.30
78779;DHT22;68121;52.404;5.318;2024-02-23T02:24:53;6.40;73.20
78779;DHT22;68121;52.404;5.318;2024-02-23T02:27:19;6.40;73.20
78779;DHT22;68121;52.404;5.318;2024-02-23T02:29:45;6.40;73.20
78779;DHT22;68121;52.404;5.318;2024-02-23T02:32:11;6.40;73.20
78779;DHT22;68121;52.404;5.318;2024-02-23T02:34:37;6.40;73.20
78779;DHT22;68121;52.404;5.318;2024-02-23T02:37:04;6.40;73.20
78779;DHT22;68121;52.404;5.318;2024-02-23T02:39:30;6.40;73.10
78779;DHT22;68121;52.404;5.318;2024-02-23T02:41:56;6.40;73.20
78779;DHT22;68121;52.404;5.318;2024-02-23T02:44:23;6.40;73.10
78779;DHT22;68121;52.404;5.318;2024-02-23T02:46:49;6.40;73.10
78779;DHT22;68121;52.404;5.318;2024-02-23T02:49:15;6.40;73.00
78779;DHT22;68121;52.404;5.318;2024-02-23T02:51:41;6.30;73.00
78779;DHT22;68121;52.404;5.318;2024-02-23T02:54:07;6.20;73.00
78779;DHT22;68121;52.404;5.318;2024-02-23T02:56:33;6.10;73.00
78779;DHT22;68121;52.404;5.318;2024-02-23T02:58:59;6.10;73.10
78779;DHT22;68121;52.404;5.318;2024-02-23T03:01:25;6.00;73.20
78779;DHT22;68121;52.404;5.318;2024-02-23T03:03:51;6.00;73.20
78779;DHT22;68121;52.404;5.318;2024-02-23T03:06:17;6.00;73.20
78779;DHT22;68121;52.404;5.318;2024-02-23T03:08:43;6.00;73.20
78779;DHT22;68121;52.404;5.318;2024-02-23T03:11:10;5.90;73.20
78779;DHT22;68121;52.404;5.318;2024-02-23T03:13:36;6.00;73.30
78779;DHT22;68121;52.404;5.318;2024-02-23T03:16:02;5.90;73.30
78779;DHT22;68121;52.404;5.318;2024-02-23T03:18:28;5.90;73.30
78779;DHT22;68121;52.404;5.318;2024-02-23T03:20:54;5.90;73.30
78779;DHT22;68121;52.404;5.318;2024-02-23T03:23:21;5.90;73.30
78779;DHT22;68121;52.404;5.318;2024-02-23T03:25:47;5.90;73.30
78779;DHT22;68121;52.404;5.318;2024-02-23T03:28:13;5.90;73.30
78779;DHT22;68121;52.404;5.318;2024-02-23T03:30:39;5.90;73.30
78779;DHT22;68121;52.404;5.318;2024-02-23T03:33:05;5.80;73.30
78779;DHT22;68121;52.404;5.318;2024-02-23T03:35:31;5.80;73.40
78779;DHT22;68121;52.404;5.318;2024-02-23T03:37:57;5.80;73.40
78779;DHT22;68121;52.404;5.318;2024-02-23T03:40:23;5.70;73.50
78779;DHT22;68121;52.404;5.318;2024-02-23T03:42:49;5.70;73.60
78779;DHT22;68121;52.404;5.318;2024-02-23T03:45:15;5.70;73.60
78779;DHT22;68121;52.404;5.318;2024-02-23T03:47:41;5.70;73.60
78779;DHT22;68121;52.404;5.318;2024-02-23T03:50:07;5.70;73.70
78779;DHT22;68121;52.404;5.318;2024-02-23T03:52:33;5.70;73.70
78779;DHT22;68121;52.404;5.318;2024-02-23T03:54:59;5.70;73.70
78779;DHT22;68121;52.404;5.318;2024-02-23T03:57:26;5.70;73.80
78779;DHT22;68121;52.404;5.318;2024-02-23T03:59:55;5.70;73.90
78779;DHT22;68121;52.404;5.318;2024-02-23T04:02:21;5.70;73.90
78779;DHT22;68121;52.404;5.318;2024-02-23T04:04:48;5.70;74.00
78779;DHT22;68121;52.404;5.318;2024-02-23T04:07:14;5.70;73.90
78779;DHT22;68121;52.404;5.318;2024-02-23T04:09:41;5.70;73.90
78779;DHT22;68121;52.404;5.318;2024-02-23T04:12:07;5.70;73.90
78779;DHT22;68121;52.404;5.318;2024-02-23T04:14:33;5.70;73.90
78779;DHT22;68121;52.404;5.318;2024-02-23T04:17:03;5.70;73.90
78779;DHT22;68121;52.404;5.318;2024-02-23T04:19:29;5.70;73.90
78779;DHT22;68121;52.404;5.318;2024-02-23T04:21:55;5.70;73.90
78779;DHT22;68121;52.404;5.318;2024-02-23T04:24:21;5.70;73.90
78779;DHT22;68121;52.404;5.318;2024-02-23T04:26:47;5.60;73.90
78779;DHT22;68121;52.404;5.318;2024-02-23T04:29:13;5.60;73.90
78779;DHT22;68121;52.404;5.318;2024-02-23T04:31:39;5.60;74.00
78779;DHT22;68121;52.404;5.318;2024-02-23T04:34:05;5.50;74.00
78779;DHT22;68121;52.404;5.318;2024-02-23T04:36:31;5.50;74.00
78779;DHT22;68121;52.404;5.318;2024-02-23T04:38:58;5.50;74.10
78779;DHT22;68121;52.404;5.318;2024-02-23T04:41:24;5.50;74.10
78779;DHT22;68121;52.404;5.318;2024-02-23T04:43:50;5.40;74.10
78779;DHT22;68121;52.404;5.318;2024-02-23T04:46:16;5.40;74.10
78779;DHT22;68121;52.404;5.318;2024-02-23T04:48:42;5.30;74.20
78779;DHT22;68121;52.404;5.318;2024-02-23T04:51:08;5.30;74.20
78779;DHT22;68121;52.404;5.318;2024-02-23T04:53:37;5.30;74.20
78779;DHT22;68121;52.404;5.318;2024-02-23T04:56:04;5.30;74.20
78779;DHT22;68121;52.404;5.318;2024-02-23T04:58:31;5.30;74.30
78779;DHT22;68121;52.404;5.318;2024-02-23T05:00:57;5.30;74.20
78779;DHT22;68121;52.404;5.318;2024-02-23T05:03:23;5.30;74.30
78779;DHT22;68121;52.404;5.318;2024-02-23T05:05:49;5.30;74.30
78779;DHT22;68121;52.404;5.318;2024-02-23T05:08:20;5.20;74.40
78779;DHT22;68121;52.404;5.318;2024-02-23T05:10:47;5.20;74.40
78779;DHT22;68121;52.404;5.318;2024-02-23T05:13:13;5.20;74.30
78779;DHT22;68121;52.404;5.318;2024-02-23T05:15:39;5.20;74.40
78779;DHT22;68121;52.404;5.318;2024-02-23T05:18:05;5.20;74.40
78779;DHT22;68121;52.404;5.318;2024-02-23T05:20:32;5.20;74.40
78779;DHT22;68121;52.404;5.318;2024-02-23T05:22:58;5.30;74.40
78779;DHT22;68121;52.404;5.318;2024-02-23T05:25:24;5.20;74.50
78779;DHT22;68121;52.404;5.318;2024-02-23T05:27:51;5.20;74.50
78779;DHT22;68121;52.404;5.318;2024-02-23T05:30:17;5.30;74.50
78779;DHT22;68121;52.404;5.318;2024-02-23T05:32:44;5.30;74.40
78779;DHT22;68121;52.404;5.318;2024-02-23T05:35:10;5.30;74.50
78779;DHT22;68121;52.404;5.318;2024-02-23T05:37:36;5.30;74.50
78779;DHT22;68121;52.404;5.318;2024-02-23T05:40:04;5.30;74.40
78779;DHT22;68121;52.404;5.318;2024-02-23T05:42:39;5.30;74.50
78779;DHT22;68121;52.404;5.318;2024-02-23T05:45:07;5.30;74.50
78779;DHT22;68121;52.404;5.318;2024-02-23T05:47:36;5.30;74.40
78779;DHT22;68121;52.404;5.318;2024-02-23T05:50:05;5.30;74.40
78779;DHT22;68121;52.404;5.318;2024-02-23T05:52:32;5.40;74.50
78779;DHT22;68121;52.404;5.318;2024-02-23T05:54:59;5.40;74.50
78779;DHT22;68121;52.404;5.318;2024-02-23T05:57:26;5.40;74.40
78779;DHT22;68121;52.404;5.318;2024-02-23T05:59:53;5.40;74.50
78779;DHT22;68121;52.404;5.318;2024-02-23T06:02:19;5.40;74.50
78779;DHT22;68121;52.404;5.318;2024-02-23T06:04:45;5.40;74.50
78779;DHT22;68121;52.404;5.318;2024-02-23T06:07:11;5.50;74.40
78779;DHT22;68121;52.404;5.318;2024-02-23T06:09:37;5.50;74.50
78779;DHT22;68121;52.404;5.318;2024-02-23T06:12:05;5.50;74.40
78779;DHT22;68121;52.404;5.318;2024-02-23T06:14:31;5.50;74.50
78779;DHT22;68121;52.404;5.318;2024-02-23T06:16:57;5.50;74.40
78779;DHT22;68121;52.404;5.318;2024-02-23T06:19:23;5.50;74.40
78779;DHT22;68121;52.404;5.318;2024-02-23T06:21:49;5.50;74.40
78779;DHT22;68121;52.404;5.318;2024-02-23T06:24:16;5.50;74.40
78779;DHT22;68121;52.404;5.318;2024-02-23T06:26:43;5.50;74.40
78779;DHT22;68121;52.404;5.318;2024-02-23T06:29:09;5.50;74.40
78779;DHT22;68121;52.404;5.318;2024-02-23T06:31:37;5.50;74.40
78779;DHT22;68121;52.404;5.318;2024-02-23T06:34:04;5.50;74.30
78779;DHT22;68121;52.404;5.318;2024-02-23T06:36:30;5.50;74.30
78779;DHT22;68121;52.404;5.318;2024-02-23T06:38:56;5.60;74.30
78779;DHT22;68121;52.404;5.318;2024-02-23T06:41:22;5.60;74.20
78779;DHT22;68121;52.404;5.318;2024-02-23T06:43:48;5.60;74.20
78779;DHT22;68121;52.404;5.318;2024-02-23T06:46:14;5.60;74.30
78779;DHT22;68121;52.404;5.318;2024-02-23T06:48:41;5.60;74.20
78779;DHT22;68121;52.404;5.318;2024-02-23T06:51:07;5.60;74.20
78779;DHT22;68121;52.404;5.318;2024-02-23T06:53:35;5.60;74.20
78779;DHT22;68121;52.404;5.318;2024-02-23T06:56:01;5.60;74.20
78779;DHT22;68121;52.404;5.318;2024-02-23T06:58:28;5.60;74.20
78779;DHT22;68121;52.404;5.318;2024-02-23T07:00:54;5.70;74.20
78779;DHT22;68121;52.404;5.318;2024-02-23T07:03:20;5.60;74.10
78779;DHT22;68121;52.404;5.318;2024-02-23T07:05:46;5.60;74.10
78779;DHT22;68121;52.404;5.318;2024-02-23T07:08:13;5.60;74.20
78779;DHT22;68121;52.404;5.318;2024-02-23T07:10:39;5.60;74.10
78779;DHT22;68121;52.404;5.318;2024-02-23T07:13:05;5.60;74.10
78779;DHT22;68121;52.404;5.318;2024-02-23T07:15:33;5.60;74.10
78779;DHT22;68121;52.404;5.318;2024-02-23T07:17:59;5.60;74.10
78779;DHT22;68121;52.404;5.318;2024-02-23T07:20:25;5.60;74.00
78779;DHT22;68121;52.404;5.318;2024-02-23T07:22:51;5.50;74.10
78779;DHT22;68121;52.404;5.318;2024-02-23T07:25:18;5.60;74.00
78779;DHT22;68121;52.404;5.318;2024-02-23T07:27:46;5.60;74.10
78779;DHT22;68121;52.404;5.318;2024-02-23T07:30:15;5.60;74.10
78779;DHT22;68121;52.404;5.318;2024-02-23T07:32:43;5.60;74.00
78779;DHT22;68121;52.404;5.318;2024-02-23T07:35:09;5.70;73.90
78779;DHT22;68121;52.404;5.318;2024-02-23T07:37:38;5.70;73.90
78779;DHT22;68121;52.404;5.318;2024-02-23T07:40:05;5.70;73.70
78779;DHT22;68121;52.404;5.318;2024-02-23T07:42:32;5.70;73.70
78779;DHT22;68121;52.404;5.318;2024-02-23T07:44:58;5.70;73.60
78779;DHT22;68121;52.404;5.318;2024-02-23T07:47:24;5.70;73.60
78779;DHT22;68121;52.404;5.318;2024-02-23T07:49:52;5.80;73.50
78779;DHT22;68121;52.404;5.318;2024-02-23T07:52:19;5.80;73.50
78779;DHT22;68121;52.404;5.318;2024-02-23T07:54:45;5.80;73.40
78779;DHT22;68121;52.404;5.318;2024-02-23T07:57:11;5.80;73.30
78779;DHT22;68121;52.404;5.318;2024-02-23T07:59:39;5.80;73.20
78779;DHT22;68121;52.404;5.318;2024-02-23T08:02:05;5.90;73.10
78779;DHT22;68121;52.404;5.318;2024-02-23T08:04:31;5.90;73.10
78779;DHT22;68121;52.404;5.318;2024-02-23T08:06:57;5.90;73.00
78779;DHT22;68121;52.404;5.318;2024-02-23T08:09:23;5.90;73.00
78779;DHT22;68121;52.404;5.318;2024-02-23T08:11:49;5.90;72.90
78779;DHT22;68121;52.404;5.318;2024-02-23T08:14:17;6.00;72.80
78779;DHT22;68121;52.404;5.318;2024-02-23T08:16:43;6.00;72.70
78779;DHT22;68121;52.404;5.318;2024-02-23T08:19:09;6.00;72.70
78779;DHT22;68121;52.404;5.318;2024-02-23T08:21:35;6.00;72.70
78779;DHT22;68121;52.404;5.318;2024-02-23T08:24:01;6.00;72.70
78779;DHT22;68121;52.404;5.318;2024-02-23T08:26:27;6.00;72.70
78779;DHT22;68121;52.404;5.318;2024-02-23T08:28:53;6.00;72.70
78779;DHT22;68121;52.404;5.318;2024-02-23T08:31:19;6.00;72.60
78779;DHT22;68121;52.404;5.318;2024-02-23T08:33:45;6.00;72.50
78779;DHT22;68121;52.404;5.318;2024-02-23T08:36:12;6.10;72.50
78779;DHT22;68121;52.404;5.318;2024-02-23T08:38:38;6.10;72.30
78779;DHT22;68121;52.404;5.318;2024-02-23T08:41:04;6.10;72.30
78779;DHT22;68121;52.404;5.318;2024-02-23T08:43:30;6.20;72.30
78779;DHT22;68121;52.404;5.318;2024-02-23T08:45:56;6.10;72.30
78779;DHT22;68121;52.404;5.318;2024-02-23T08:48:22;6.10;72.40
78779;DHT22;68121;52.404;5.318;2024-02-23T08:50:49;6.00;72.50
78779;DHT22;68121;52.404;5.318;2024-02-23T08:53:15;6.00;72.50
78779;DHT22;68121;52.404;5.318;2024-02-23T08:55:41;5.90;72.60
78779;DHT22;68121;52.404;5.318;2024-02-23T08:58:07;5.90;72.60
78779;DHT22;68121;52.404;5.318;2024-02-23T09:00:33;5.80;72.80
78779;DHT22;68121;52.404;5.318;2024-02-23T09:02:59;5.80;72.90
78779;DHT22;68121;52.404;5.318;2024-02-23T09:05:25;5.80;73.00
78779;DHT22;68121;52.404;5.318;2024-02-23T09:07:51;5.80;73.00
78779;DHT22;68121;52.404;5.318;2024-02-23T09:10:17;5.70;73.10
78779;DHT22;68121;52.404;5.318;2024-02-23T09:12:43;5.70;73.10
78779;DHT22;68121;52.404;5.318;2024-02-23T09:15:10;5.80;73.10
78779;DHT22;68121;52.404;5.318;2024-02-23T09:17:36;5.80;73.10
78779;DHT22;68121;52.404;5.318;2024-02-23T09:20:02;5.90;73.00
78779;DHT22;68121;52.404;5.318;2024-02-23T09:22:28;5.90;73.00
78779;DHT22;68121;52.404;5.318;2024-02-23T09:24:54;5.90;73.00
78779;DHT22;68121;52.404;5.318;2024-02-23T09:27:22;5.90;73.00
78779;DHT22;68121;52.404;5.318;2024-02-23T09:29:48;5.90;73.10
78779;DHT22;68121;52.404;5.318;2024-02-23T09:32:14;5.90;73.10
78779;DHT22;68121;52.404;5.318;2024-02-23T09:34:40;6.00;73.10
78779;DHT22;68121;52.404;5.318;2024-02-23T09:37:06;6.00;73.10
78779;DHT22;68121;52.404;5.318;2024-02-23T09:39:32;6.00;73.20
78779;DHT22;68121;52.404;5.318;2024-02-23T09:41:58;6.00;73.20
78779;DHT22;68121;52.404;5.318;2024-02-23T09:44:34;6.00;73.20
78779;DHT22;68121;52.404;5.318;2024-02-23T09:47:04;5.90;73.20
78779;DHT22;68121;52.404;5.318;2024-02-23T09:49:38;5.90;73.30
78779;DHT22;68121;52.404;5.318;2024-02-23T09:52:09;5.90;73.30
78779;DHT22;68121;52.404;5.318;2024-02-23T09:54:39;5.90;73.40
78779;DHT22;68121;52.404;5.318;2024-02-23T09:57:08;5.90;73.50
78779;DHT22;68121;52.404;5.318;2024-02-23T09:59:35;6.00;73.50
78779;DHT22;68121;52.404;5.318;2024-02-23T10:02:07;6.00;73.40
78779;DHT22;68121;52.404;5.318;2024-02-23T10:04:34;6.10;73.40
78779;DHT22;68121;52.404;5.318;2024-02-23T10:07:00;6.20;73.40
78779;DHT22;68121;52.404;5.318;2024-02-23T10:09:26;6.30;73.30
78779;DHT22;68121;52.404;5.318;2024-02-23T10:11:53;6.30;73.30
78779;DHT22;68121;52.404;5.318;2024-02-23T10:14:19;6.40;73.20
78779;DHT22;68121;52.404;5.318;2024-02-23T10:16:45;6.40;73.20
78779;DHT22;68121;52.404;5.318;2024-02-23T10:19:11;6.40;73.10
78779;DHT22;68121;52.404;5.318;2024-02-23T10:21:37;6.40;73.10
78779;DHT22;68121;52.404;5.318;2024-02-23T10:24:05;6.50;73.20
78779;DHT22;68121;52.404;5.318;2024-02-23T10:26:31;6.60;73.10
78779;DHT22;68121;52.404;5.318;2024-02-23T10:28:57;6.60;73.00
78779;DHT22;68121;52.404;5.318;2024-02-23T10:31:24;6.70;73.00
78779;DHT22;68121;52.404;5.318;2024-02-23T10:33:51;6.80;72.80
78779;DHT22;68121;52.404;5.318;2024-02-23T10:36:18;6.80;72.70
78779;DHT22;68121;52.404;5.318;2024-02-23T10:38:45;6.90;72.60
78779;DHT22;68121;52.404;5.318;2024-02-23T10:41:14;6.90;72.60
78779;DHT22;68121;52.404;5.318;2024-02-23T10:43:47;6.80;72.60
78779;DHT22;68121;52.404;5.318;2024-02-23T10:46:13;6.90;72.50
78779;DHT22;68121;52.404;5.318;2024-02-23T10:48:44;6.90;72.50
78779;DHT22;68121;52.404;5.318;2024-02-23T10:51:13;6.90;72.50
78779;DHT22;68121;52.404;5.318;2024-02-23T10:53:39;6.90;72.50
78779;DHT22;68121;52.404;5.318;2024-02-23T10:56:07;6.90;72.50
78779;DHT22;68121;52.404;5.318;2024-02-23T10:58:33;6.90;72.50
78779;DHT22;68121;52.404;5.318;2024-02-23T11:01:01;7.00;72.50
78779;DHT22;68121;52.404;5.318;2024-02-23T11:03:32;7.00;72.50
78779;DHT22;68121;52.404;5.318;2024-02-23T11:06:02;7.20;72.30
78779;DHT22;68121;52.404;5.318;2024-02-23T11:08:29;7.20;72.30
78779;DHT22;68121;52.404;5.318;2024-02-23T11:10:55;7.20;72.20
78779;DHT22;68121;52.404;5.318;2024-02-23T11:13:30;7.30;72.10
78779;DHT22;68121;52.404;5.318;2024-02-23T11:16:03;7.20;71.90
78779;DHT22;68121;52.404;5.318;2024-02-23T11:18:30;7.30;71.90
78779;DHT22;68121;52.404;5.318;2024-02-23T11:21:01;7.30;71.90
78779;DHT22;68121;52.404;5.318;2024-02-23T11:23:41;7.30;71.90
78779;DHT22;68121;52.404;5.318;2024-02-23T11:26:12;7.30;71.90
78779;DHT22;68121;52.404;5.318;2024-02-23T11:28:51;7.30;71.90
78779;DHT22;68121;52.404;5.318;2024-02-23T11:31:22;7.30;71.90
78779;DHT22;68121;52.404;5.318;2024-02-23T11:33:53;7.40;71.70
78779;DHT22;68121;52.404;5.318;2024-02-23T11:36:24;7.40;71.70
78779;DHT22;68121;52.404;5.318;2024-02-23T11:38:53;7.50;71.80
78779;DHT22;68121;52.404;5.318;2024-02-23T11:41:23;7.50;71.60
78779;DHT22;68121;52.404;5.318;2024-02-23T11:43:50;7.50;71.60
78779;DHT22;68121;52.404;5.318;2024-02-23T11:46:17;7.50;71.50
78779;DHT22;68121;52.404;5.318;2024-02-23T11:48:44;7.50;71.50
78779;DHT22;68121;52.404;5.318;2024-02-23T11:51:13;7.50;71.50
78779;DHT22;68121;52.404;5.318;2024-02-23T11:53:40;7.50;71.50
78779;DHT22;68121;52.404;5.318;2024-02-23T11:56:06;7.50;71.40
78779;DHT22;68121;52.404;5.318;2024-02-23T11:58:33;7.50;71.40
78779;DHT22;68121;52.404;5.318;2024-02-23T12:01:03;7.50;71.40
78779;DHT22;68121;52.404;5.318;2024-02-23T12:03:30;7.50;71.40
78779;DHT22;68121;52.404;5.318;2024-02-23T12:06:00;7.60;71.30
78779;DHT22;68121;52.404;5.318;2024-02-23T12:08:27;7.80;71.30
78779;DHT22;68121;52.404;5.318;2024-02-23T12:10:56;7.90;71.50
78779;DHT22;68121;52.404;5.318;2024-02-23T12:13:23;8.20;71.20
78779;DHT22;68121;52.404;5.318;2024-02-23T12:15:53;8.50;70.80
78779;DHT22;68121;52.404;5.318;2024-02-23T12:18:23;8.80;70.40
78779;DHT22;68121;52.404;5.318;2024-02-23T12:20:52;8.90;70.00
78779;DHT22;68121;52.404;5.318;2024-02-23T12:23:19;8.90;69.80
78779;DHT22;68121;52.404;5.318;2024-02-23T12:25:57;8.80;69.90
78779;DHT22;68121;52.404;5.318;2024-02-23T12:28:23;8.60;70.20
78779;DHT22;68121;52.404;5.318;2024-02-23T12:31:00;8.60;70.10
78779;DHT22;68121;52.404;5.318;2024-02-23T12:33:29;8.60;70.10
78779;DHT22;68121;52.404;5.318;2024-02-23T12:35:58;8.60;70.10
78779;DHT22;68121;52.404;5.318;2024-02-23T12:38:25;8.60;70.20
78779;DHT22;68121;52.404;5.318;2024-02-23T12:40:52;8.50;70.30
78779;DHT22;68121;52.404;5.318;2024-02-23T12:43:18;8.50;70.50
78779;DHT22;68121;52.404;5.318;2024-02-23T12:45:47;8.50;70.30
78779;DHT22;68121;52.404;5.318;2024-02-23T12:48:20;8.50;70.30
78779;DHT22;68121;52.404;5.318;2024-02-23T12:50:48;8.50;70.40
78779;DHT22;68121;52.404;5.318;2024-02-23T12:53:36;8.50;70.40
78779;DHT22;68121;52.404;5.318;2024-02-23T12:56:05;8.50;70.30
78779;DHT22;68121;52.404;5.318;2024-02-23T12:58:32;8.40;70.30
78779;DHT22;68121;52.404;5.318;2024-02-23T13:00:58;8.40;70.20
78779;DHT22;68121;52.404;5.318;2024-02-23T13:03:27;8.40;70.30
78779;DHT22;68121;52.404;5.318;2024-02-23T13:05:55;8.40;70.20
78779;DHT22;68121;52.404;5.318;2024-02-23T13:08:22;8.40;70.30
78779;DHT22;68121;52.404;5.318;2024-02-23T13:10:49;8.40;70.30
78779;DHT22;68121;52.404;5.318;2024-02-23T13:13:15;8.40;70.30
78779;DHT22;68121;52.404;5.318;2024-02-23T13:15:43;8.40;70.20
78779;DHT22;68121;52.404;5.318;2024-02-23T13:18:09;8.40;70.30
78779;DHT22;68121;52.404;5.318;2024-02-23T13:20:37;8.40;70.20
78779;DHT22;68121;52.404;5.318;2024-02-23T13:23:03;8.40;70.30
78779;DHT22;68121;52.404;5.318;2024-02-23T13:25:29;8.40;70.30
78779;DHT22;68121;52.404;5.318;2024-02-23T13:27:55;8.50;70.10
78779;DHT22;68121;52.404;5.318;2024-02-23T13:30:21;8.50;70.00
78779;DHT22;68121;52.404;5.318;2024-02-23T13:32:47;8.60;69.80
78779;DHT22;68121;52.404;5.318;2024-02-23T13:35:13;8.60;69.80
78779;DHT22;68121;52.404;5.318;2024-02-23T13:37:41;8.60;69.80
78779;DHT22;68121;52.404;5.318;2024-02-23T13:40:09;8.80;69.70
78779;DHT22;68121;52.404;5.318;2024-02-23T13:42:36;8.80;69.50
78779;DHT22;68121;52.404;5.318;2024-02-23T13:45:07;8.80;69.50
78779;DHT22;68121;52.404;5.318;2024-02-23T13:47:35;8.90;69.40
78779;DHT22;68121;52.404;5.318;2024-02-23T13:50:02;8.90;69.20
78779;DHT22;68121;52.404;5.318;2024-02-23T13:52:28;9.00;68.90
78779;DHT22;68121;52.404;5.318;2024-02-23T13:54:54;8.90;68.90
78779;DHT22;68121;52.404;5.318;2024-02-23T13:57:20;8.90;68.90
78779;DHT22;68121;52.404;5.318;2024-02-23T13:59:47;8.90;69.00
78779;DHT22;68121;52.404;5.318;2024-02-23T14:02:13;8.80;69.00
78779;DHT22;68121;52.404;5.318;2024-02-23T14:04:40;8.80;69.10
78779;DHT22;68121;52.404;5.318;2024-02-23T14:07:09;8.80;69.10
78779;DHT22;68121;52.404;5.318;2024-02-23T14:09:35;8.80;69.10
78779;DHT22;68121;52.404;5.318;2024-02-23T14:12:01;8.80;69.00
78779;DHT22;68121;52.404;5.318;2024-02-23T14:14:27;8.90;69.00
78779;DHT22;68121;52.404;5.318;2024-02-23T14:16:53;8.90;69.00
78779;DHT22;68121;52.404;5.318;2024-02-23T14:19:20;8.90;68.90
78779;DHT22;68121;52.404;5.318;2024-02-23T14:21:47;8.90;68.90
78779;DHT22;68121;52.404;5.318;2024-02-23T14:24:14;9.00;68.70
78779;DHT22;68121;52.404;5.318;2024-02-23T14:26:40;9.00;68.70
78779;DHT22;68121;52.404;5.318;2024-02-23T14:29:06;9.00;68.70
78779;DHT22;68121;52.404;5.318;2024-02-23T14:31:32;8.90;68.60
78779;DHT22;68121;52.404;5.318;2024-02-23T14:33:58;8.90;68.60
78779;DHT22;68121;52.404;5.318;2024-02-23T14:36:24;8.90;68.70
78779;DHT22;68121;52.404;5.318;2024-02-23T14:38:50;9.00;68.70
78779;DHT22;68121;52.404;5.318;2024-02-23T14:41:16;9.00;68.70
78779;DHT22;68121;52.404;5.318;2024-02-23T14:43:42;9.00;68.50
78779;DHT22;68121;52.404;5.318;2024-02-23T14:46:09;9.00;68.40
78779;DHT22;68121;52.404;5.318;2024-02-23T14:48:35;9.00;68.30
78779;DHT22;68121;52.404;5.318;2024-02-23T14:51:02;9.00;68.30
78779;DHT22;68121;52.404;5.318;2024-02-23T14:53:30;9.00;68.30
78779;DHT22;68121;52.404;5.318;2024-02-23T14:55:56;9.00;68.20
78779;DHT22;68121;52.404;5.318;2024-02-23T14:58:22;9.00;68.20
78779;DHT22;68121;52.404;5.318;2024-02-23T15:00:48;8.90;68.00
78779;DHT22;68121;52.404;5.318;2024-02-23T15:03:14;8.90;68.00
78779;DHT22;68121;52.404;5.318;2024-02-23T15:05:41;8.90;68.00
78779;DHT22;68121;52.404;5.318;2024-02-23T15:08:07;8.90;67.90
78779;DHT22;68121;52.404;5.318;2024-02-23T15:10:34;8.90;68.00
78779;DHT22;68121;52.404;5.318;2024-02-23T15:13:00;8.90;67.80
78779;DHT22;68121;52.404;5.318;2024-02-23T15:15:26;8.80;67.90
78779;DHT22;68121;52.404;5.318;2024-02-23T15:17:52;8.80;67.80
78779;DHT22;68121;52.404;5.318;2024-02-23T15:20:18;8.80;67.70
78779;DHT22;68121;52.404;5.318;2024-02-23T15:22:45;8.80;67.70
78779;DHT22;68121;52.404;5.318;2024-02-23T15:25:12;8.70;67.80
78779;DHT22;68121;52.404;5.318;2024-02-23T15:27:38;8.70;67.70
78779;DHT22;68121;52.404;5.318;2024-02-23T15:30:06;8.70;67.80
78779;DHT22;68121;52.404;5.318;2024-02-23T15:32:36;8.70;67.80
78779;DHT22;68121;52.404;5.318;2024-02-23T15:35:03;8.70;67.70
78779;DHT22;68121;52.404;5.318;2024-02-23T15:37:29;8.70;67.60
78779;DHT22;68121;52.404;5.318;2024-02-23T15:39:55;8.70;67.60
78779;DHT22;68121;52.404;5.318;2024-02-23T15:42:21;8.60;67.50